nws-alerts: Checking more than four warning/county codes can delay the loading of your pages. You should use a cron job to get the data.

Nearby METAR Reports

 

KKLS - Kelso Longveiw, Washington, USA
Distance from station: ESE 7mi, 11km
Updated: Fri, 20-Apr-2018 10:56am PDT
Overcast
Overcast
 Wind from S
Wind: S 8 mph , 13 km/h
Temperature: 55°F , 13°C
Dew Point: 45°F , 7°C
Humidity: 67%
Barometer: 1024.7 hPa
Clouds: Overcast
Visibility: 10 miles , 16 km
Cloud details: Overcast 12000 ft
2018/04/20 17:56 KKLS 201756Z AUTO 18007KT 10SM OVC120 13/07 A3026 RMK AO2 SLP252 T01330067 10133 20033 58010
KSPB - Scappoose, Oregon, USA
Distance from station: SSE 29mi, 46km
Updated: Fri, 20-Apr-2018 10:53am PDT
Mostly cloudy
Mostly cloudy
 Wind from SE
Wind: SE 6 mph , 9 km/h
Temperature: 54°F , 12°C
Dew Point: 43°F , 6°C
Humidity: 67%
Barometer: 1024.7 hPa
Clouds: Mostly cloudy
Visibility: 10 miles , 16 km
Cloud details: Mostly cloudy 12000 ft
2018/04/20 17:53 KSPB 201753Z AUTO 13005KT 10SM BKN120 12/06 A3026 RMK AO2 SLP247 T01170056 10122 20028 58007
 
KCLS - Chehalis Central, Washington, USA
Distance from station: N 36mi, 58km
Updated: Fri, 20-Apr-2018 11:35am PDT
Clear
Clear
 Wind from varies
Wind: varies 6 mph , 9 km/h
Temperature: 61°F , 16°C
Dew Point: 37°F , 3°C
Humidity: 42%
Barometer: 1023.7 hPa
Clouds: Clear
Visibility: 10 miles , 16 km
2018/04/20 18:35 KCLS 201835Z AUTO VRB05KT 10SM CLR 16/03 A3023 RMK AO2
KAST - Astoria, Oregon, USA
Distance from station: W 41mi, 66km
Updated: Fri, 20-Apr-2018 10:55am PDT
Overcast
Overcast
 Wind from calm
Wind: Calm
Temperature: 48°F , 9°C
Dew Point: 43°F , 6°C
Humidity: 82%
Barometer: 1024.4 hPa
Clouds: Overcast
Visibility: 10 miles , 16 km
Cloud details: Overcast 10000 ft
2018/04/20 17:55 KAST 201755Z AUTO 00000KT 10SM OVC100 09/06 A3025 RMK AO2 SLP241 T00940061 10094 20039 57006
 
KVUO - Vancouver, Washington, USA
Distance from station: SSE 42mi, 68km
Updated: Fri, 20-Apr-2018 10:53am PDT
Mostly cloudy
Mostly cloudy
 Wind from calm
Wind: Calm
Temperature: 55°F , 13°C
Dew Point: 41°F , 5°C
Humidity: 59%
Barometer: 1024.7 hPa
Clouds: Mostly cloudy
Visibility: 10 miles , 16 km
Cloud details: Mostly cloudy 12000 ft
2018/04/20 17:53 KVUO 201753Z AUTO 00000KT 10SM BKN120 13/05 A3026 RMK AO2 SLP247 T01330050 10133 20039 58008
KHIO - Hillsboro/Portld, Oregon, USA
Distance from station: S 43mi, 69km
Updated: Fri, 20-Apr-2018 10:53am PDT
Mostly cloudy
Mostly cloudy
 Wind from calm
Wind: Calm
Temperature: 55°F , 13°C
Dew Point: 39°F , 4°C
Humidity: 55%
Barometer: 1024.7 hPa
Clouds: Mostly cloudy
Visibility: 10 miles , 16 km
Cloud details: Mostly cloudy 11000 ft
2018/04/20 17:53 KHIO 201753Z 00000KT 10SM BKN110 13/04 A3026 RMK AO2 SLP245 T01280039 10133 20022 58007
 
KPDX - Portland, Oregon, USA
Distance from station: SSE 44mi, 70km
Updated: Fri, 20-Apr-2018 10:53am PDT
Partly cloudy
Partly cloudy
 Wind from calm
Wind: Calm
Temperature: 55°F , 13°C
Dew Point: 43°F , 6°C
Humidity: 63%
Barometer: 1024.7 hPa
Clouds: Partly cloudy
Visibility: 10 miles , 16 km
Cloud details: Partly cloudy 12000 ft
Partly cloudy 20000 ft
2018/04/20 17:53 KPDX 201753Z 00000KT 10SM SCT120 SCT200 13/06 A3026 RMK AO2 SLP248 T01330056 10133 20050 58007